createdAt,value
2018-02-09T00:01:05.974Z,53.27
2018-02-09T00:03:34.431Z,53.27
2018-02-09T00:06:02.859Z,52.69
2018-02-09T00:08:31.263Z,53.99
2018-02-09T00:10:59.673Z,53.54
2018-02-09T00:13:28.124Z,52.90
2018-02-09T00:15:56.588Z,53.10
2018-02-09T00:18:25.051Z,53.41
2018-02-09T00:20:53.444Z,53.25
2018-02-09T00:23:21.877Z,53.40
2018-02-09T00:25:50.290Z,53.62
2018-02-09T00:28:18.677Z,53.37
2018-02-09T00:30:47.165Z,52.73
2018-02-09T00:33:15.670Z,53.37
2018-02-09T00:35:44.206Z,53.81
2018-02-09T00:38:12.698Z,53.31
2018-02-09T00:40:41.096Z,52.57
2018-02-09T00:43:09.533Z,52.47
2018-02-09T00:45:37.969Z,53.13
2018-02-09T00:48:06.459Z,52.50
2018-02-09T00:50:34.871Z,52.90
2018-02-09T00:53:03.273Z,52.75
2018-02-09T00:55:31.694Z,53.09
2018-02-09T00:58:00.119Z,52.60
2018-02-09T01:00:28.694Z,52.90
2018-02-09T01:02:57.107Z,53.05
2018-02-09T01:05:25.529Z,53.02
2018-02-09T01:07:53.964Z,53.26
2018-02-09T01:10:22.373Z,52.98
2018-02-09T01:12:50.822Z,53.02
2018-02-09T01:15:19.235Z,52.74
2018-02-09T01:17:47.795Z,53.19
2018-02-09T01:20:16.285Z,52.99
2018-02-09T01:22:44.783Z,53.32
2018-02-09T01:25:13.180Z,53.03
2018-02-09T01:27:41.694Z,52.75
2018-02-09T01:30:10.101Z,52.38
2018-02-09T01:32:38.514Z,52.95
2018-02-09T01:35:06.984Z,53.12
2018-02-09T01:37:35.408Z,52.44
2018-02-09T01:40:03.807Z,52.30
2018-02-09T01:42:32.303Z,53.61
2018-02-09T01:45:00.713Z,53.19
2018-02-09T01:47:29.158Z,54.04
2018-02-09T01:50:09.418Z,52.93
2018-02-09T01:52:37.864Z,52.52
2018-02-09T01:55:06.356Z,52.48
2018-02-09T01:57:34.754Z,53.34
2018-02-09T02:00:03.225Z,53.17
2018-02-09T02:02:31.618Z,52.83
2018-02-09T02:05:00.221Z,52.55
2018-02-09T02:07:28.618Z,51.72
2018-02-09T02:09:57.130Z,51.74
2018-02-09T02:12:25.522Z,53.25
2018-02-09T02:14:53.914Z,52.77
2018-02-09T02:17:22.372Z,53.37
2018-02-09T02:19:50.753Z,52.56
2018-02-09T02:22:19.137Z,54.22
2018-02-09T02:24:47.546Z,55.79
2018-02-09T02:27:16.009Z,56.43
2018-02-09T02:29:44.461Z,55.36
2018-02-09T02:32:12.952Z,55.70
2018-02-09T02:34:41.356Z,52.51
2018-02-09T02:37:09.755Z,51.46
2018-02-09T02:39:38.156Z,52.03
2018-02-09T02:42:06.592Z,50.77
2018-02-09T02:44:35.061Z,51.20
2018-02-09T02:47:03.535Z,51.67
2018-02-09T02:49:31.938Z,51.98
2018-02-09T02:52:00.352Z,51.18
2018-02-09T02:54:28.772Z,50.75
2018-02-09T02:56:57.150Z,51.37
2018-02-09T02:59:25.625Z,51.15
2018-02-09T03:01:54.036Z,51.05
2018-02-09T03:04:22.422Z,50.59
2018-02-09T03:06:50.914Z,50.86
2018-02-09T03:09:19.318Z,51.12
2018-02-09T03:11:47.757Z,50.98
2018-02-09T03:14:16.195Z,50.78
2018-02-09T03:16:44.742Z,51.18
2018-02-09T03:19:13.130Z,50.94
2018-02-09T03:21:41.533Z,50.99
2018-02-09T03:24:09.921Z,50.47
2018-02-09T03:26:38.303Z,51.11
2018-02-09T03:29:07.050Z,50.84
2018-02-09T03:31:35.547Z,50.70
2018-02-09T03:34:03.961Z,50.68
2018-02-09T03:36:32.350Z,51.19
2018-02-09T03:39:00.741Z,50.69
2018-02-09T03:41:29.177Z,50.62
2018-02-09T03:43:57.691Z,50.42
2018-02-09T03:46:26.070Z,50.21
2018-02-09T03:48:54.470Z,50.27
2018-02-09T03:51:22.868Z,49.83
2018-02-09T03:53:51.261Z,49.57
2018-02-09T03:56:19.664Z,49.63
2018-02-09T03:58:48.199Z,49.89
2018-02-09T04:01:16.654Z,49.72
2018-02-09T04:03:45.105Z,49.54
2018-02-09T04:06:13.503Z,49.53
2018-02-09T04:08:41.881Z,49.55
2018-02-09T04:11:10.277Z,49.74
2018-02-09T04:13:38.733Z,49.78
2018-02-09T04:16:07.132Z,49.73
2018-02-09T04:18:35.514Z,49.88
2018-02-09T04:21:04.001Z,48.83
2018-02-09T04:23:32.398Z,49.28
2018-02-09T04:26:00.827Z,49.13
2018-02-09T04:28:29.201Z,48.90
2018-02-09T04:30:57.758Z,48.61
2018-02-09T04:33:26.130Z,49.36
2018-02-09T04:35:54.522Z,49.10
2018-02-09T04:38:22.903Z,48.78
2018-02-09T04:40:51.290Z,49.70
2018-02-09T04:43:19.830Z,49.24
2018-02-09T04:45:48.228Z,48.86
2018-02-09T04:48:16.612Z,49.29
2018-02-09T04:50:45.026Z,49.40
2018-02-09T04:53:13.410Z,48.46
2018-02-09T04:55:41.954Z,49.45
2018-02-09T04:58:10.351Z,48.23
2018-02-09T05:00:38.836Z,48.04
2018-02-09T05:03:07.220Z,47.65
2018-02-09T05:05:35.605Z,47.63
2018-02-09T05:08:04.079Z,48.46
2018-02-09T05:10:32.491Z,48.14
2018-02-09T05:13:00.887Z,49.21
2018-02-09T05:15:29.268Z,50.06
2018-02-09T05:17:57.671Z,48.94
2018-02-09T05:20:26.143Z,49.89
2018-02-09T05:22:54.521Z,49.74
2018-02-09T05:25:22.932Z,49.50
2018-02-09T05:27:51.334Z,49.35
2018-02-09T05:30:19.722Z,49.61
2018-02-09T05:32:48.145Z,50.01
2018-02-09T05:35:16.543Z,50.04
2018-02-09T05:37:45.092Z,49.43
2018-02-09T05:40:13.492Z,49.91
2018-02-09T05:42:41.889Z,50.90
2018-02-09T05:45:10.281Z,50.30
2018-02-09T05:47:38.770Z,50.26
2018-02-09T05:50:07.315Z,50.40
2018-02-09T05:52:35.775Z,50.22
2018-02-09T05:55:04.181Z,50.56
2018-02-09T05:57:32.581Z,50.90
2018-02-09T06:00:00.976Z,50.69
2018-02-09T06:02:29.431Z,51.02
2018-02-09T06:04:57.887Z,51.69
2018-02-09T06:07:26.289Z,51.64
2018-02-09T06:09:54.697Z,51.33
2018-02-09T06:12:23.116Z,52.48
2018-02-09T06:14:51.532Z,52.54
2018-02-09T06:17:19.938Z,52.66
2018-02-09T06:19:48.409Z,51.85
2018-02-09T06:22:16.814Z,51.64
2018-02-09T06:24:45.286Z,52.02
2018-02-09T06:27:13.696Z,51.79
2018-02-09T06:29:42.108Z,52.29
2018-02-09T06:32:10.561Z,51.47
2018-02-09T06:34:38.970Z,51.93
2018-02-09T06:37:07.369Z,52.86
2018-02-09T06:39:35.737Z,52.12
2018-02-09T06:42:04.127Z,55.44
2018-02-09T06:44:32.594Z,53.37
2018-02-09T06:47:01.006Z,55.79
2018-02-09T06:49:29.410Z,56.50
2018-02-09T06:51:57.827Z,56.55
2018-02-09T06:54:26.277Z,58.33
2018-02-09T06:56:54.754Z,58.13
2018-02-09T06:59:23.147Z,58.54
2018-02-09T07:01:51.557Z,57.75
2018-02-09T07:04:19.953Z,57.58
2018-02-09T07:06:48.345Z,60.40
2018-02-09T07:09:16.807Z,59.96
2018-02-09T07:11:45.205Z,58.71
2018-02-09T07:14:13.613Z,57.80
2018-02-09T07:16:42.007Z,57.59
2018-02-09T07:19:10.414Z,59.30
2018-02-09T07:21:38.937Z,57.88
2018-02-09T07:24:07.331Z,56.10
2018-02-09T07:26:35.745Z,55.18
2018-02-09T07:29:04.146Z,55.41
2018-02-09T07:31:32.582Z,55.44
2018-02-09T07:34:01.043Z,54.63
2018-02-09T07:36:29.445Z,54.36
2018-02-09T07:38:57.875Z,54.09
2018-02-09T07:41:26.280Z,54.41
2018-02-09T07:43:54.688Z,54.91
2018-02-09T07:46:23.168Z,56.44
2018-02-09T07:48:51.570Z,56.02
2018-02-09T07:51:19.954Z,54.65
2018-02-09T07:53:48.364Z,53.33
2018-02-09T07:56:16.766Z,52.56
2018-02-09T07:58:45.210Z,52.24
2018-02-09T08:01:13.620Z,53.15
2018-02-09T08:03:42.023Z,53.07
2018-02-09T08:06:10.481Z,51.68
2018-02-09T08:08:38.856Z,51.02
2018-02-09T08:11:07.341Z,52.69
2018-02-09T08:13:35.750Z,52.35
2018-02-09T08:16:04.138Z,51.93
2018-02-09T08:18:32.567Z,49.79
2018-02-09T08:21:00.970Z,51.16
2018-02-09T08:23:29.532Z,53.40
2018-02-09T08:25:57.935Z,56.94
2018-02-09T08:28:26.333Z,54.27
2018-02-09T08:30:54.783Z,54.45
2018-02-09T08:33:23.263Z,55.86
2018-02-09T08:35:51.691Z,52.69
2018-02-09T08:38:20.075Z,50.17
2018-02-09T08:40:48.840Z,49.67
2018-02-09T08:43:17.539Z,49.13
2018-02-09T08:45:46.083Z,49.40
2018-02-09T08:48:14.495Z,49.92
2018-02-09T08:50:42.893Z,49.38
2018-02-09T08:53:11.379Z,51.00
2018-02-09T08:55:39.859Z,51.13
2018-02-09T08:58:08.296Z,52.35
2018-02-09T09:00:36.718Z,49.71
2018-02-09T09:03:05.122Z,47.13
2018-02-09T09:05:33.570Z,53.35
2018-02-09T09:08:01.969Z,54.58
2018-02-09T09:10:30.439Z,51.90
2018-02-09T09:12:58.847Z,49.45
2018-02-09T09:15:27.279Z,49.49
2018-02-09T09:17:55.665Z,47.85
2018-02-09T09:20:24.051Z,47.21
2018-02-09T09:22:52.616Z,46.31
2018-02-09T09:25:21.018Z,44.54
2018-02-09T09:27:49.438Z,43.57
2018-02-09T09:30:17.839Z,41.23
2018-02-09T09:32:46.246Z,41.35
2018-02-09T09:35:15.118Z,40.63
2018-02-09T09:37:43.494Z,40.76
2018-02-09T09:40:11.913Z,39.76
2018-02-09T09:42:40.296Z,40.16
2018-02-09T09:45:08.700Z,40.16
2018-02-09T09:47:37.150Z,39.70
2018-02-09T09:50:05.572Z,38.93
2018-02-09T09:52:34.070Z,39.34
2018-02-09T09:55:02.469Z,40.89
2018-02-09T09:57:30.945Z,37.54
2018-02-09T09:59:59.348Z,38.22
2018-02-09T10:02:41.299Z,37.07
2018-02-09T10:05:09.713Z,36.55
2018-02-09T10:07:38.122Z,38.20
2018-02-09T10:10:06.827Z,37.80
2018-02-09T10:12:35.425Z,36.07
2018-02-09T10:15:03.961Z,35.45
2018-02-09T10:17:32.374Z,32.53
2018-02-09T10:20:00.769Z,32.24
2018-02-09T10:22:29.181Z,32.67
2018-02-09T10:24:57.576Z,32.53
2018-02-09T10:27:26.038Z,34.08
2018-02-09T10:29:54.498Z,33.86
2018-02-09T10:32:22.894Z,32.20
2018-02-09T10:34:51.320Z,31.41
2018-02-09T10:37:19.755Z,35.30
2018-02-09T10:39:48.219Z,32.40
2018-02-09T10:42:16.620Z,31.31
2018-02-09T10:44:45.047Z,32.63
2018-02-09T10:47:13.496Z,31.72
2018-02-09T10:49:41.899Z,30.91
2018-02-09T10:52:10.343Z,30.75
2018-02-09T10:54:38.911Z,34.47
2018-02-09T10:57:07.359Z,35.35
2018-02-09T10:59:35.843Z,35.65
2018-02-09T11:02:04.238Z,36.11
2018-02-09T11:04:32.639Z,37.60
2018-02-09T11:07:01.180Z,37.13
2018-02-09T11:09:31.495Z,40.78
2018-02-09T11:12:01.879Z,39.45
2018-02-09T11:14:30.286Z,40.71
2018-02-09T11:16:58.914Z,41.72
2018-02-09T11:19:27.394Z,39.29
2018-02-09T11:21:56.003Z,41.95
2018-02-09T11:24:24.571Z,43.50
2018-02-09T11:26:53.395Z,43.79
2018-02-09T11:29:22.220Z,44.31
2018-02-09T11:31:51.048Z,43.56
2018-02-09T11:34:20.040Z,44.19
2018-02-09T11:36:48.702Z,44.54
2018-02-09T11:39:17.387Z,45.20
2018-02-09T11:41:46.156Z,47.00
2018-02-09T11:44:14.850Z,45.05
2018-02-09T11:46:44.029Z,45.02
2018-02-09T11:49:12.884Z,46.63
2018-02-09T11:51:41.828Z,47.56
2018-02-09T11:54:10.946Z,45.90
2018-02-09T11:56:39.426Z,47.12
2018-02-09T11:59:08.048Z,44.43
2018-02-09T12:01:36.745Z,43.64
2018-02-09T12:04:05.334Z,44.33
2018-02-09T12:06:34.050Z,46.56
2018-02-09T12:09:02.925Z,44.20
2018-02-09T12:11:31.792Z,41.08
2018-02-09T12:14:00.506Z,41.48
2018-02-09T12:16:29.162Z,41.12
2018-02-09T12:18:57.892Z,39.63
2018-02-09T12:21:26.719Z,37.51
2018-02-09T12:23:55.356Z,38.04
2018-02-09T12:26:24.401Z,36.36
2018-02-09T12:28:52.880Z,34.75
2018-02-09T12:31:21.581Z,35.52
2018-02-09T12:33:50.224Z,35.57
2018-02-09T12:36:19.011Z,38.27
2018-02-09T12:38:48.485Z,38.31
2018-02-09T12:41:17.076Z,37.89
2018-02-09T12:43:45.475Z,38.54
2018-02-09T12:46:13.881Z,39.64
2018-02-09T12:48:42.442Z,38.44
2018-02-09T12:51:10.830Z,37.79
2018-02-09T12:53:39.320Z,34.63
2018-02-09T12:56:07.726Z,36.24
2018-02-09T12:58:36.139Z,36.06
2018-02-09T13:01:04.646Z,36.65
2018-02-09T13:03:33.039Z,35.72
2018-02-09T13:06:01.419Z,35.57
2018-02-09T13:08:29.815Z,35.35
2018-02-09T13:10:58.250Z,36.58
2018-02-09T13:13:26.653Z,34.43
2018-02-09T13:15:55.027Z,35.97
2018-02-09T13:18:35.892Z,35.89
2018-02-09T13:21:04.297Z,36.41
2018-02-09T13:23:44.655Z,36.80
2018-02-09T13:26:13.075Z,35.17
2018-02-09T13:28:53.261Z,36.39
2018-02-09T13:31:21.767Z,35.14
2018-02-09T13:33:50.147Z,35.71
2018-02-09T13:36:18.573Z,33.19
2018-02-09T13:38:46.988Z,34.90
2018-02-09T13:41:15.395Z,37.76
2018-02-09T13:43:43.803Z,40.90
2018-02-09T13:46:12.253Z,43.20
2018-02-09T13:48:40.658Z,47.36
2018-02-09T13:51:09.047Z,45.72
2018-02-09T13:53:37.438Z,46.60
2018-02-09T13:56:05.852Z,45.46
2018-02-09T13:58:34.305Z,46.60
2018-02-09T14:01:02.696Z,50.23
2018-02-09T14:03:32.070Z,47.07
2018-02-09T14:06:00.427Z,48.45
2018-02-09T14:08:28.826Z,46.71
2018-02-09T14:10:57.370Z,46.74
2018-02-09T14:13:25.775Z,47.59
2018-02-09T14:15:54.770Z,48.00
2018-02-09T14:18:23.165Z,48.39
2018-02-09T14:20:51.677Z,45.69
2018-02-09T14:23:20.141Z,47.10
2018-02-09T14:25:48.518Z,47.20
2018-02-09T14:28:17.000Z,46.82
2018-02-09T14:30:45.391Z,46.95
2018-02-09T14:33:13.801Z,47.64
2018-02-09T14:35:42.211Z,48.15
2018-02-09T14:38:10.610Z,47.61
2018-02-09T14:40:39.267Z,47.77
2018-02-09T14:43:07.671Z,47.53
2018-02-09T14:45:36.153Z,48.29
2018-02-09T14:48:04.549Z,49.11
2018-02-09T14:50:33.079Z,49.44
2018-02-09T14:53:01.509Z,49.71
2018-02-09T14:55:30.010Z,48.88
2018-02-09T14:57:58.521Z,46.73
2018-02-09T15:00:26.918Z,49.85
2018-02-09T15:02:55.395Z,51.67
2018-02-09T15:05:23.832Z,51.43
2018-02-09T15:07:52.226Z,52.11
2018-02-09T15:10:20.982Z,50.73
2018-02-09T15:12:49.404Z,52.62
2018-02-09T15:15:17.813Z,51.04
2018-02-09T15:17:46.195Z,52.06
2018-02-09T15:20:14.607Z,51.49
2018-02-09T15:22:43.098Z,51.72
2018-02-09T15:25:11.581Z,51.21
2018-02-09T15:27:40.040Z,49.77
2018-02-09T15:30:08.446Z,51.75
2018-02-09T15:32:36.890Z,53.52
2018-02-09T15:35:05.474Z,55.90
2018-02-09T15:37:33.880Z,55.02
2018-02-09T15:40:02.291Z,56.17
2018-02-09T15:42:30.671Z,55.85
2018-02-09T15:44:59.116Z,54.59
2018-02-09T15:47:27.519Z,59.17
2018-02-09T15:49:55.900Z,58.98
2018-02-09T15:52:25.071Z,57.06
2018-02-09T15:54:53.480Z,57.32
2018-02-09T15:57:21.869Z,55.09
2018-02-09T15:59:50.260Z,55.59
2018-02-09T16:02:18.664Z,59.61
2018-02-09T16:04:47.110Z,59.76
2018-02-09T16:07:15.510Z,57.62
2018-02-09T16:09:44.396Z,54.77
2018-02-09T16:12:12.793Z,56.15
2018-02-09T16:14:41.219Z,55.20
2018-02-09T16:17:09.630Z,54.26
2018-02-09T16:19:38.024Z,56.16
2018-02-09T16:22:06.485Z,58.30
2018-02-09T16:24:34.895Z,58.23
2018-02-09T16:27:03.388Z,54.57
2018-02-09T16:29:31.795Z,54.12
2018-02-09T16:32:00.219Z,55.38
2018-02-09T16:34:28.658Z,54.60
2018-02-09T16:36:57.044Z,53.89
2018-02-09T16:39:25.525Z,57.83
2018-02-09T16:41:53.932Z,54.14
2018-02-09T16:44:22.330Z,55.63
2018-02-09T16:46:50.742Z,55.72
2018-02-09T16:49:19.170Z,53.99
2018-02-09T16:51:47.661Z,55.18
2018-02-09T16:54:16.023Z,56.92
2018-02-09T16:56:44.419Z,56.49
2018-02-09T16:59:12.901Z,56.63
2018-02-09T17:01:41.291Z,56.43
2018-02-09T17:04:09.730Z,56.94
2018-02-09T17:06:38.104Z,55.82
2018-02-09T17:09:06.493Z,54.93
2018-02-09T17:11:34.943Z,57.67
2018-02-09T17:14:03.470Z,57.09
2018-02-09T17:16:31.866Z,56.69
2018-02-09T17:19:00.375Z,56.12
2018-02-09T17:21:28.767Z,58.19
2018-02-09T17:23:57.193Z,61.32
2018-02-09T17:26:25.583Z,59.78
2018-02-09T17:28:54.104Z,60.65
2018-02-09T17:31:22.584Z,59.72
2018-02-09T17:33:51.129Z,59.62
2018-02-09T17:36:19.583Z,59.98
2018-02-09T17:38:47.995Z,61.99
2018-02-09T17:41:16.566Z,62.77
2018-02-09T17:43:44.935Z,62.06
2018-02-09T17:46:13.286Z,62.48
2018-02-09T17:48:41.822Z,62.44
2018-02-09T17:51:10.195Z,62.65
2018-02-09T17:53:38.602Z,62.28
2018-02-09T17:56:07.025Z,63.56
2018-02-09T17:58:35.472Z,63.65
2018-02-09T18:01:03.947Z,63.62
2018-02-09T18:03:32.353Z,60.71
2018-02-09T18:06:00.743Z,62.83
2018-02-09T18:08:29.160Z,64.46
2018-02-09T18:10:57.744Z,61.65
2018-02-09T18:13:26.142Z,61.16
2018-02-09T18:15:54.626Z,62.75
2018-02-09T18:18:23.013Z,61.56
2018-02-09T18:20:51.457Z,62.93
2018-02-09T18:23:19.879Z,64.40
2018-02-09T18:25:48.265Z,62.46
2018-02-09T18:28:16.685Z,62.09
2018-02-09T18:30:45.064Z,62.63
2018-02-09T18:33:13.479Z,62.53
2018-02-09T18:35:41.858Z,61.87
2018-02-09T18:38:10.272Z,61.63
2018-02-09T18:40:38.728Z,58.56
2018-02-09T18:43:07.109Z,59.94
2018-02-09T18:45:35.526Z,61.05
2018-02-09T18:48:03.931Z,63.21
2018-02-09T18:50:32.326Z,60.48
2018-02-09T18:53:01.125Z,61.72
2018-02-09T18:55:29.540Z,58.72
2018-02-09T18:57:58.123Z,57.51
2018-02-09T19:00:26.513Z,59.17
2018-02-09T19:02:54.917Z,60.03
2018-02-09T19:05:23.386Z,60.75
2018-02-09T19:07:51.795Z,60.57
2018-02-09T19:10:20.298Z,60.51
2018-02-09T19:12:48.729Z,61.25
2018-02-09T19:15:17.118Z,57.68
2018-02-09T19:17:45.951Z,59.56
2018-02-09T19:20:14.443Z,59.69
2018-02-09T19:22:42.849Z,62.70
2018-02-09T19:25:11.301Z,60.71
2018-02-09T19:27:39.719Z,60.61
2018-02-09T19:30:08.191Z,59.34
2018-02-09T19:32:36.734Z,59.63
2018-02-09T19:35:05.169Z,59.74
2018-02-09T19:37:33.554Z,58.91
2018-02-09T19:40:02.010Z,56.73
2018-02-09T19:42:30.421Z,56.71
2018-02-09T19:44:58.856Z,59.44
2018-02-09T19:47:27.233Z,60.11
2018-02-09T19:49:55.602Z,63.14
2018-02-09T19:52:24.043Z,60.50
2018-02-09T19:54:52.430Z,60.51
2018-02-09T19:57:20.826Z,60.48
2018-02-09T19:59:49.237Z,63.81
2018-02-09T20:02:17.662Z,60.24
2018-02-09T20:04:46.202Z,58.55
2018-02-09T20:07:14.611Z,58.36
2018-02-09T20:09:43.039Z,56.44
2018-02-09T20:12:11.450Z,57.54
2018-02-09T20:14:39.926Z,56.13
2018-02-09T20:17:08.454Z,56.46
2018-02-09T20:19:36.863Z,58.26
2018-02-09T20:22:05.349Z,58.26
2018-02-09T20:24:33.718Z,60.10
2018-02-09T20:27:02.307Z,56.90
2018-02-09T20:29:30.744Z,59.06
2018-02-09T20:31:59.168Z,61.27
2018-02-09T20:34:27.628Z,60.31
2018-02-09T20:36:56.040Z,58.73
2018-02-09T20:39:24.526Z,59.91
2018-02-09T20:41:53.029Z,60.06
2018-02-09T20:44:21.409Z,58.56
2018-02-09T20:46:49.806Z,58.51
2018-02-09T20:49:18.227Z,58.19
2018-02-09T20:51:46.699Z,60.46
2018-02-09T20:54:15.109Z,61.59
2018-02-09T20:56:43.496Z,61.30
2018-02-09T20:59:11.913Z,57.89
2018-02-09T21:01:40.425Z,58.96
2018-02-09T21:04:08.866Z,60.60
2018-02-09T21:06:37.282Z,61.62
2018-02-09T21:09:05.737Z,61.03
2018-02-09T21:11:34.163Z,61.44
2018-02-09T21:14:02.557Z,61.12
2018-02-09T21:16:31.039Z,61.40
2018-02-09T21:18:59.434Z,62.25
2018-02-09T21:21:27.857Z,60.23
2018-02-09T21:23:56.346Z,59.83
2018-02-09T21:26:24.801Z,63.46
2018-02-09T21:28:53.566Z,61.48
2018-02-09T21:31:21.984Z,62.39
2018-02-09T21:33:50.453Z,62.61
2018-02-09T21:36:18.861Z,61.48
2018-02-09T21:38:47.287Z,59.98
2018-02-09T21:41:15.735Z,60.49
2018-02-09T21:43:44.139Z,59.97
2018-02-09T21:46:12.548Z,61.37
2018-02-09T21:48:40.914Z,59.50
2018-02-09T21:51:09.307Z,60.49
2018-02-09T21:53:37.766Z,59.94
2018-02-09T21:56:06.181Z,59.96
2018-02-09T21:58:34.573Z,59.73
2018-02-09T22:01:02.932Z,60.85
2018-02-09T22:03:31.293Z,59.60
2018-02-09T22:05:59.802Z,63.18
2018-02-09T22:08:28.179Z,61.81
2018-02-09T22:10:56.614Z,61.83
2018-02-09T22:13:25.000Z,60.27
2018-02-09T22:15:53.398Z,61.69
2018-02-09T22:18:21.792Z,62.88
2018-02-09T22:20:50.295Z,63.37
2018-02-09T22:23:18.730Z,65.32
2018-02-09T22:25:47.125Z,60.92
2018-02-09T22:28:15.713Z,61.78
2018-02-09T22:30:44.127Z,58.68
2018-02-09T22:33:12.521Z,61.06
2018-02-09T22:35:40.905Z,62.55
2018-02-09T22:38:09.327Z,63.26
2018-02-09T22:40:37.787Z,61.21
2018-02-09T22:43:06.211Z,61.56
2018-02-09T22:45:34.623Z,58.62
2018-02-09T22:48:03.040Z,60.75
2018-02-09T22:50:31.525Z,62.45
2018-02-09T22:53:00.026Z,61.11
2018-02-09T22:55:28.403Z,58.88
2018-02-09T22:57:56.835Z,58.23
2018-02-09T23:00:25.332Z,56.51
2018-02-09T23:02:53.726Z,60.57
2018-02-09T23:05:22.184Z,60.06
2018-02-09T23:07:50.664Z,58.11
2018-02-09T23:10:19.067Z,61.41
2018-02-09T23:12:47.459Z,59.85
2018-02-09T23:15:15.863Z,59.47
2018-02-09T23:17:44.340Z,58.46
2018-02-09T23:20:12.820Z,62.91
2018-02-09T23:22:41.205Z,60.82
2018-02-09T23:25:09.624Z,61.07
2018-02-09T23:27:38.041Z,59.07
2018-02-09T23:30:06.487Z,59.39
2018-02-09T23:32:34.891Z,63.64
2018-02-09T23:35:03.439Z,65.65
2018-02-09T23:37:31.832Z,66.88
2018-02-09T23:40:00.235Z,67.31
2018-02-09T23:42:28.639Z,68.94
2018-02-09T23:44:57.032Z,67.06
2018-02-09T23:47:25.478Z,65.63
2018-02-09T23:49:53.880Z,62.44
2018-02-09T23:52:22.366Z,62.26
2018-02-09T23:54:50.782Z,63.98
2018-02-09T23:57:19.258Z,65.77
2018-02-09T23:59:47.761Z,67.35
